Time;durP1;ratioP1;P1;durP2;ratioP2;P2;SDS_P1;SDS_P2;PMS_P1;PMS_P2;Temp;Humidity;BMP_temperature;BMP_pressure;BME280_temperature;BME280_humidity;BME280_pressure;Samples;Min_cycle;Max_cycle;Signal;HPM_P1;HPM_P2
2023/06/08 00:01:45;;;;;;;17.80;16.52;;;;;;;21.73;56.99;100257.34;5048412;27;96800;-78
2023/06/08 00:04:12;;;;;;;23.67;21.90;;;;;;;21.73;57.19;100257.34;5045866;27;98727;-77
2023/06/08 00:06:40;;;;;;;20.83;19.23;;;;;;;21.68;57.47;100260.38;5053215;27;98357;-77
2023/06/08 00:09:09;;;;;;;21.98;19.90;;;;;;;21.64;57.72;100266.94;5020238;27;96656;-77
2023/06/08 00:11:35;;;;;;;20.00;18.40;;;;;;;21.58;57.98;100271.91;5045790;27;97096;-77
2023/06/08 00:14:01;;;;;;;23.77;21.58;;;;;;;21.54;57.90;100274.00;5054755;27;98851;-77
2023/06/08 00:16:29;;;;;;;23.23;21.33;;;;;;;21.53;58.00;100269.63;5019677;27;98297;-77
2023/06/08 00:18:56;;;;;;;22.25;20.38;;;;;;;21.51;57.84;100268.91;5046775;27;97422;-79
2023/06/08 00:21:26;;;;;;;22.48;20.83;;;;;;;21.50;57.92;100271.66;5046416;27;96751;-77
2023/06/08 00:23:52;;;;;;;26.95;24.70;;;;;;;21.46;57.87;100265.75;5054830;27;98754;-77
2023/06/08 00:26:18;;;;;;;20.63;19.08;;;;;;;21.42;57.94;100269.63;5041819;27;98837;-77
2023/06/08 00:28:49;;;;;;;18.67;17.05;;;;;;;21.37;57.81;100267.31;5042101;27;96824;-78
2023/06/08 00:31:15;;;;;;;20.88;19.33;;;;;;;21.39;57.85;100264.56;5033489;27;96967;-78
2023/06/08 00:33:41;;;;;;;20.98;19.48;;;;;;;21.32;58.14;100269.50;5048457;27;98768;-78
2023/06/08 00:36:08;;;;;;;19.60;18.20;;;;;;;21.26;58.09;100256.63;5018792;27;100183;-78
2023/06/08 00:38:36;;;;;;;24.05;22.00;;;;;;;21.25;58.21;100265.59;5045565;27;98925;-77
2023/06/08 00:41:03;;;;;;;18.10;16.48;;;;;;;21.22;58.43;100257.84;5030210;28;97396;-78
2023/06/08 00:43:28;;;;;;;18.13;16.67;;;;;;;21.20;58.44;100257.13;5033827;27;98559;-77
2023/06/08 00:45:55;;;;;;;19.33;17.65;;;;;;;21.16;58.52;100261.00;5033410;27;97346;-77
2023/06/08 00:48:21;;;;;;;23.98;21.98;;;;;;;21.11;58.71;100266.69;5021674;27;96762;-78
2023/06/08 00:50:47;;;;;;;19.15;17.33;;;;;;;21.06;58.73;100258.22;5028287;28;96861;-78
2023/06/08 00:53:16;;;;;;;20.23;18.50;;;;;;;21.07;58.70;100265.25;5030037;27;97611;-78
2023/06/08 00:55:43;;;;;;;19.30;17.60;;;;;;;21.07;58.85;100265.25;5042821;27;97759;-77
2023/06/08 00:58:13;;;;;;;17.85;16.15;;;;;;;21.06;58.80;100262.69;5018719;27;97179;-78
2023/06/08 01:00:42;;;;;;;18.23;16.33;;;;;;;21.05;58.88;100259.19;5020572;28;96845;-77
2023/06/08 01:03:08;;;;;;;18.55;17.05;;;;;;;21.02;59.01;100257.59;5048058;27;98646;-78
2023/06/08 01:05:33;;;;;;;16.95;15.23;;;;;;;20.99;58.96;100257.00;5032500;27;98267;-78
2023/06/08 01:08:44;;;;;;;22.60;20.92;;;;;;;20.97;59.10;100253.59;5022140;27;96773;-79
2023/06/08 01:11:36;;;;;;;24.95;22.80;;;;;;;20.85;59.06;100263.41;5003888;28;96935;-78
2023/06/08 01:14:24;;;;;;;16.92;15.55;;;;;;;20.83;59.08;100259.16;5046298;27;98872;-78
2023/06/08 01:16:51;;;;;;;18.27;16.67;;;;;;;20.79;58.93;100262.06;5034047;27;98306;-78
2023/06/08 01:19:38;;;;;;;16.73;15.38;;;;;;;20.80;58.92;100257.59;5022193;27;96907;-78
2023/06/08 01:22:09;;;;;;;17.48;16.05;;;;;;;20.76;58.90;100251.63;5025208;27;96940;-78
2023/06/08 01:24:38;;;;;;;21.27;16.52;;;;;;;20.76;59.09;100254.28;5047639;27;98070;-78
2023/06/08 01:27:09;;;;;;;18.90;17.23;;;;;;;20.70;59.39;100253.94;5016415;27;98936;-78
2023/06/08 01:29:35;;;;;;;19.45;16.88;;;;;;;20.67;59.32;100249.69;5028107;28;97272;-78
2023/06/08 01:32:00;;;;;;;22.85;18.20;;;;;;;20.65;59.41;100251.59;5033768;27;96847;-78
2023/06/08 01:34:26;;;;;;;21.20;19.20;;;;;;;20.58;59.57;100239.72;5051343;27;98992;-78
2023/06/08 01:37:10;;;;;;;19.70;17.98;;;;;;;20.52;59.65;100241.03;5050568;27;98925;-78
2023/06/08 01:39:55;;;;;;;19.85;17.95;;;;;;;20.52;59.54;100256.16;5045361;27;96869;-78
2023/06/08 01:42:22;;;;;;;22.88;21.08;;;;;;;20.52;59.42;100251.72;5032777;27;97376;-77
2023/06/08 01:44:56;;;;;;;20.05;18.73;;;;;;;20.52;59.37;100256.16;5027265;27;99405;-78
2023/06/08 01:47:26;;;;;;;18.50;16.77;;;;;;;20.48;59.43;100260.91;5021776;28;98511;-78
2023/06/08 01:49:54;;;;;;;20.70;17.10;;;;;;;20.44;59.49;100255.91;5009068;27;96808;-78
2023/06/08 01:52:20;;;;;;;18.30;16.80;;;;;;;20.42;59.61;100257.81;5035883;27;96922;-78
2023/06/08 01:54:46;;;;;;;19.17;17.52;;;;;;;20.39;59.62;100258.94;5045222;27;99059;-78
2023/06/08 01:57:11;;;;;;;17.23;15.82;;;;;;;20.31;59.70;100250.66;5018049;27;98322;-78
2023/06/08 01:59:37;;;;;;;20.20;18.70;;;;;;;20.34;59.71;100264.59;5029680;27;97442;-77
2023/06/08 02:02:02;;;;;;;20.20;18.48;;;;;;;20.33;59.66;100254.91;5019567;28;96979;-78
2023/06/08 02:04:28;;;;;;;21.65;19.95;;;;;;;20.31;59.83;100264.00;5048852;27;100889;-77
2023/06/08 02:06:54;;;;;;;21.38;19.55;;;;;;;20.28;59.73;100267.72;5055592;27;98460;-78
2023/06/08 02:09:20;;;;;;;23.50;21.70;;;;;;;20.29;nan;100265.91;5034998;27;97087;-78
2023/06/08 02:11:45;;;;;;;22.05;20.30;;;;;;;20.25;60.06;100272.44;5029856;27;96923;-78
2023/06/08 02:14:11;;;;;;;21.42;19.63;;;;;;;20.19;60.20;100264.88;5048383;27;98662;-78
2023/06/08 02:16:38;;;;;;;20.75;18.98;;;;;;;20.14;60.29;100267.91;5046991;27;98479;-78
2023/06/08 02:19:04;;;;;;;21.75;19.80;;;;;;;20.05;60.58;100263.28;5042007;27;97254;-78
2023/06/08 02:21:31;;;;;;;25.27;22.77;;;;;;;20.09;60.47;100270.06;5050565;27;96909;-78
2023/06/08 02:23:56;;;;;;;24.55;22.10;;;;;;;20.04;60.57;100269.56;5041977;27;98841;-77
2023/06/08 02:26:22;;;;;;;24.00;21.80;;;;;;;20.04;60.48;100264.22;5055696;27;98881;-78
2023/06/08 02:28:47;;;;;;;22.90;21.15;;;;;;;20.04;60.63;100267.75;5034671;27;97399;-78
2023/06/08 02:31:13;;;;;;;21.05;19.17;;;;;;;20.05;60.52;100266.78;5039052;27;96931;-78
2023/06/08 02:33:40;;;;;;;23.75;21.85;;;;;;;20.05;60.55;100265.94;5031210;27;100397;-77
2023/06/08 02:36:09;;;;;;;24.30;22.13;;;;;;;20.04;60.49;100270.44;5024963;27;99971;-78
2023/06/08 02:38:37;;;;;;;18.80;17.42;;;;;;;20.03;60.44;100274.03;5033574;27;97133;-78
2023/06/08 02:41:06;;;;;;;19.08;17.55;;;;;;;20.01;60.47;100275.97;5025308;27;97026;-77
2023/06/08 02:43:35;;;;;;;19.70;18.00;;;;;;;19.98;60.64;100270.84;5037928;27;98638;-78
2023/06/08 02:46:01;;;;;;;19.92;18.08;;;;;;;19.99;60.36;100274.41;5029219;27;100054;-78
2023/06/08 02:48:28;;;;;;;19.38;17.48;;;;;;;19.96;60.30;100264.81;5034709;27;97561;-78
2023/06/08 02:50:54;;;;;;;23.23;21.58;;;;;;;19.99;60.27;100277.91;5028720;27;97060;-78
2023/06/08 02:53:19;;;;;;;19.55;17.65;;;;;;;19.90;60.58;100266.13;5040675;27;98682;-77
2023/06/08 02:55:45;;;;;;;19.90;17.95;;;;;;;19.97;60.33;100279.81;5025653;27;100424;-78
2023/06/08 02:58:17;;;;;;;20.17;18.15;;;;;;;19.96;60.50;100280.78;5041424;27;97693;-78
2023/06/08 03:00:43;;;;;;;19.55;17.70;;;;;;;20.00;60.41;100287.59;5024000;28;97611;-78
2023/06/08 03:03:29;;;;;;;20.02;18.20;;;;;;;19.98;60.46;100284.16;5031846;28;100582;-77
2023/06/08 03:06:01;;;;;;;18.48;16.88;;;;;;;20.01;60.28;100283.97;5030503;27;99809;-78
2023/06/08 03:08:33;;;;;;;17.60;16.00;;;;;;;20.02;60.26;100282.16;5034971;27;97138;-78
2023/06/08 03:11:00;;;;;;;19.80;17.73;;;;;;;20.02;60.35;100280.34;5036062;27;96930;-77
2023/06/08 03:13:26;;;;;;;19.35;17.48;;;;;;;20.06;60.07;100273.81;5053074;27;98770;-78
2023/06/08 03:15:52;;;;;;;20.67;15.55;;;;;;;20.13;60.00;100282.22;5028109;27;100106;-78
2023/06/08 03:18:18;;;;;;;17.45;15.75;;;;;;;20.18;59.87;100273.84;5023709;27;97383;-78
2023/06/08 03:20:44;;;;;;;18.02;16.35;;;;;;;20.28;59.62;100273.06;5055371;27;97348;-77
2023/06/08 03:23:15;;;;;;;20.80;16.50;;;;;;;20.35;59.62;100270.78;5024021;27;99995;-77
2023/06/08 03:25:41;;;;;;;17.80;16.30;;;;;;;20.38;59.66;100270.53;5028942;27;100421;-77
2023/06/08 03:28:07;;;;;;;19.52;17.85;;;;;;;20.39;59.71;100271.38;5030099;28;97749;-77
2023/06/08 03:30:33;;;;;;;19.17;17.33;;;;;;;20.42;59.76;100273.81;5034497;27;97325;-77
2023/06/08 03:32:59;;;;;;;21.95;19.75;;;;;;;20.44;59.56;100270.06;5042064;27;100712;-78
2023/06/08 03:35:39;;;;;;;19.95;17.92;;;;;;;20.48;59.47;100273.38;5040972;27;97729;-77
2023/06/08 03:38:17;;;;;;;21.90;20.35;;;;;;;20.54;59.31;100273.78;5025389;28;96921;-77
2023/06/08 03:40:43;;;;;;;20.23;18.20;;;;;;;20.60;59.37;100271.63;5030823;27;97409;-78
2023/06/08 03:43:09;;;;;;;19.95;18.33;;;;;;;20.64;59.19;100265.91;5036101;27;98761;-77
2023/06/08 03:45:35;;;;;;;20.10;18.23;;;;;;;20.70;59.39;100276.09;5027019;28;98529;-78
2023/06/08 03:48:01;;;;;;;19.90;18.10;;;;;;;20.74;59.31;100271.38;5028699;27;96842;-78
2023/06/08 03:50:29;;;;;;;18.67;17.13;;;;;;;20.74;59.45;100280.25;5024988;28;97126;-78
2023/06/08 03:52:55;;;;;;;20.92;19.15;;;;;;;20.76;59.26;100277.44;5009521;27;100191;-77
2023/06/08 03:55:21;;;;;;;18.60;17.13;;;;;;;20.80;58.79;100273.59;5034712;27;100071;-77
2023/06/08 03:57:47;;;;;;;19.45;17.80;;;;;;;20.88;58.61;100276.50;5037129;27;96812;-77
2023/06/08 04:00:15;;;;;;;20.05;18.45;;;;;;;20.90;58.46;100277.25;5003436;28;97541;-77
2023/06/08 04:02:40;;;;;;;23.85;21.75;;;;;;;20.94;58.51;100285.84;5047701;27;97484;-78
2023/06/08 04:05:10;;;;;;;18.05;16.45;;;;;;;21.04;58.25;100284.16;5017453;28;100649;-78
2023/06/08 04:07:36;;;;;;;18.25;16.50;;;;;;;21.11;58.09;100280.03;5012242;27;96848;-78
2023/06/08 04:10:02;;;;;;;22.15;20.45;;;;;;;21.25;57.91;100286.97;5034054;27;97027;-78
2023/06/08 04:12:29;;;;;;;20.20;18.20;;;;;;;21.35;57.81;100285.28;5036736;27;100673;-77
2023/06/08 04:14:54;;;;;;;22.38;20.23;;;;;;;21.43;57.61;100292.69;5043782;27;98168;-78
2023/06/08 04:17:20;;;;;;;21.23;19.45;;;;;;;21.48;57.57;100283.34;5021689;28;96682;-77
2023/06/08 04:19:46;;;;;;;20.65;18.45;;;;;;;21.57;57.18;100288.91;5023928;28;97047;-78
2023/06/08 04:22:11;;;;;;;22.42;20.25;;;;;;;21.67;57.19;100288.06;5040673;27;97665;-77
2023/06/08 04:24:39;;;;;;;20.77;18.67;;;;;;;21.75;57.21;100286.56;5023211;28;100139;-78
2023/06/08 04:27:06;;;;;;;21.25;19.20;;;;;;;21.89;56.93;100289.81;5033141;27;96836;-77
2023/06/08 04:29:32;;;;;;;21.75;19.25;;;;;;;21.99;56.65;100294.41;5020416;28;96997;-78
2023/06/08 04:31:58;;;;;;;20.65;18.70;;;;;;;22.08;56.45;100293.66;5020423;27;100300;-78
2023/06/08 04:34:24;;;;;;;24.50;22.15;;;;;;;22.17;56.08;100300.94;5035722;27;100353;-77
2023/06/08 04:36:50;;;;;;;21.83;18.25;;;;;;;22.28;55.99;100297.38;5053338;27;96741;-78
2023/06/08 04:39:16;;;;;;;20.92;19.17;;;;;;;22.40;55.92;100301.72;5034305;27;97315;-78
2023/06/08 04:41:45;;;;;;;21.77;19.48;;;;;;;22.50;55.67;100299.09;5035996;27;100833;-77
2023/06/08 04:44:13;;;;;;;20.17;18.35;;;;;;;22.66;55.10;100304.00;5031951;27;97608;-77
2023/06/08 04:46:42;;;;;;;21.35;19.40;;;;;;;22.77;54.92;100307.44;5028906;27;97030;-77
2023/06/08 04:49:09;;;;;;;22.63;20.70;;;;;;;22.89;54.69;100302.03;5032759;28;97252;-78
2023/06/08 04:51:39;;;;;;;23.33;21.02;;;;;;;22.99;54.52;100308.34;5038947;27;98632;-76
2023/06/08 04:54:05;;;;;;;24.77;22.50;;;;;;;23.08;54.48;100310.22;5036200;27;97703;-76
2023/06/08 04:56:33;;;;;;;25.13;23.00;;;;;;;23.20;54.07;100302.94;5043388;27;97100;-76
2023/06/08 04:59:01;;;;;;;22.35;20.15;;;;;;;23.29;53.59;100299.44;5036504;27;97542;-77
2023/06/08 05:01:28;;;;;;;19.15;17.45;;;;;;;23.37;53.91;100302.31;5038916;27;98751;-77
2023/06/08 05:03:54;;;;;;;21.20;19.58;;;;;;;23.51;53.40;100306.47;5026932;28;100199;-76
2023/06/08 05:06:20;;;;;;;21.58;19.95;;;;;;;23.58;53.47;100306.75;5028427;27;96761;-76
2023/06/08 05:08:46;;;;;;;22.77;20.45;;;;;;;23.68;53.08;100305.81;5040622;27;96842;-79
2023/06/08 05:11:12;;;;;;;19.85;17.75;;;;;;;23.75;52.76;100310.66;5032961;27;100934;-79
2023/06/08 05:13:38;;;;;;;20.70;19.00;;;;;;;23.89;52.74;100311.09;5038666;27;98014;-79
2023/06/08 05:16:04;;;;;;;19.52;18.02;;;;;;;23.99;52.35;100313.78;5053804;27;96741;-78
2023/06/08 05:18:29;;;;;;;21.77;19.83;;;;;;;24.11;52.02;100306.47;5047577;27;96907;-78
2023/06/08 05:20:55;;;;;;;19.30;17.75;;;;;;;24.21;51.94;100315.38;5047014;27;99121;-78
2023/06/08 05:23:20;;;;;;;21.50;19.13;;;;;;;24.35;51.71;100300.69;5045720;27;98569;-78
2023/06/08 05:25:46;;;;;;;21.02;19.13;;;;;;;24.47;51.22;100304.97;5051434;27;97065;-78
2023/06/08 05:28:12;;;;;;;18.77;17.17;;;;;;;24.54;51.11;100297.19;5037233;27;97305;-78
2023/06/08 05:30:37;;;;;;;21.38;19.35;;;;;;;24.62;50.48;100300.00;5036993;27;98587;-78
2023/06/08 05:33:03;;;;;;;21.83;19.55;;;;;;;24.74;50.43;100296.16;5035974;27;98474;-78
2023/06/08 05:35:29;;;;;;;19.85;18.13;;;;;;;24.84;50.51;100305.06;5036953;27;96741;-78
2023/06/08 05:37:55;;;;;;;20.23;18.80;;;;;;;25.01;50.21;100297.22;5053318;27;98027;-79
2023/06/08 05:40:21;;;;;;;21.65;19.73;;;;;;;25.25;49.88;100294.94;5051349;27;98792;-78
2023/06/08 05:42:46;;;;;;;19.27;17.45;;;;;;;25.70;48.73;100301.34;5053784;27;98261;-78
2023/06/08 05:45:12;;;;;;;20.52;18.75;;;;;;;26.27;47.36;100303.81;5039067;27;96981;-79
2023/06/08 05:47:38;;;;;;;19.45;17.75;;;;;;;26.98;46.04;100292.13;5033581;27;96860;-78
2023/06/08 05:50:04;;;;;;;31.67;28.40;;;;;;;28.15;44.34;100292.25;5045981;27;98496;-79
2023/06/08 05:52:30;;;;;;;26.70;24.33;;;;;;;29.45;41.20;100285.03;5050572;27;98694;-78
2023/06/08 05:54:56;;;;;;;21.00;19.38;;;;;;;31.16;38.16;100273.97;5035932;27;97424;-78
2023/06/08 05:57:22;;;;;;;25.23;23.30;;;;;;;33.11;34.47;100285.59;5035845;27;96966;-79
2023/06/08 05:59:47;;;;;;;23.98;21.83;;;;;;;36.63;29.75;100276.22;5036891;27;98857;-79
2023/06/08 06:02:13;;;;;;;23.02;21.42;;;;;;;40.30;25.05;100271.09;5032355;27;98477;-79
2023/06/08 06:04:38;;;;;;;23.20;21.58;;;;;;;42.35;23.11;100260.75;5035324;27;96756;-80
2023/06/08 06:07:05;;;;;;;18.73;17.30;;;;;;;43.74;21.69;100268.69;5034016;27;97656;-79
2023/06/08 06:09:31;;;;;;;20.95;19.13;;;;;;;44.96;20.01;100276.97;5042705;27;99071;-79
2023/06/08 06:11:57;;;;;;;26.88;24.83;;;;;;;46.16;19.19;100268.59;5040231;27;98290;-77
2023/06/08 06:14:22;;;;;;;28.00;25.88;;;;;;;47.27;17.98;100267.75;5048424;27;96959;-77
2023/06/08 06:16:48;;;;;;;24.27;22.67;;;;;;;47.99;17.15;100275.91;5046064;27;97027;-77
2023/06/08 06:19:13;;;;;;;26.13;24.02;;;;;;;49.25;16.75;100275.03;5051110;27;98815;-77
2023/06/08 06:21:39;;;;;;;21.60;19.77;;;;;;;50.04;16.36;100260.69;5049207;27;98839;-77
2023/06/08 06:24:05;;;;;;;22.38;20.88;;;;;;;50.90;15.77;100265.91;5045909;27;96804;-77
2023/06/08 06:26:30;;;;;;;21.73;20.17;;;;;;;51.84;15.16;100265.59;5038855;27;97275;-80
2023/06/08 06:28:56;;;;;;;22.63;20.60;;;;;;;52.31;13.97;100260.13;5032057;27;98674;-79
2023/06/08 06:31:21;;;;;;;21.70;19.98;;;;;;;52.84;13.38;100257.97;5034296;27;98651;-79
2023/06/08 06:33:47;;;;;;;22.02;20.42;;;;;;;53.46;13.33;100262.06;5035166;27;97650;-79
2023/06/08 06:36:12;;;;;;;22.63;21.08;;;;;;;53.69;12.92;100273.75;5043687;27;97445;-79
2023/06/08 06:38:39;;;;;;;22.02;20.45;;;;;;;54.28;12.94;100256.66;5033838;27;97830;-79
2023/06/08 06:41:04;;;;;;;22.00;20.15;;;;;;;54.48;12.69;100254.97;5031059;27;98392;-79
2023/06/08 06:43:30;;;;;;;22.73;20.60;;;;;;;55.02;12.00;100254.78;5034860;27;96615;-79
2023/06/08 06:46:04;;;;;;;21.27;19.85;;;;;;;55.64;12.25;100249.84;5033475;27;97448;-79
2023/06/08 06:48:30;;;;;;;23.45;21.95;;;;;;;55.89;11.69;100250.53;5046343;27;97563;-79
2023/06/08 06:50:55;;;;;;;24.70;22.92;;;;;;;56.45;11.02;100246.81;5041859;27;98604;-79
2023/06/08 06:53:21;;;;;;;21.98;20.30;;;;;;;56.67;11.37;100246.22;5045667;27;96775;-79
2023/06/08 06:55:46;;;;;;;24.15;22.38;;;;;;;56.84;10.68;100249.81;5044732;27;96844;-80
2023/06/08 06:58:14;;;;;;;23.20;21.63;;;;;;;56.80;11.25;100254.53;5038098;27;98082;-79
2023/06/08 07:00:40;;;;;;;20.90;19.60;;;;;;;57.27;10.33;100245.19;5031859;27;99141;-79
2023/06/08 07:03:07;;;;;;;22.08;20.40;;;;;;;56.81;11.30;100244.88;5037775;27;97242;-79
2023/06/08 07:05:36;;;;;;;22.63;20.70;;;;;;;56.28;11.41;100247.19;5040742;27;97236;-79
2023/06/08 07:08:02;;;;;;;21.80;20.40;;;;;;;55.83;11.97;100241.53;5043803;27;97828;-79
2023/06/08 07:10:28;;;;;;;21.27;19.77;;;;;;;57.45;11.03;100246.38;5033936;27;97763;-78
2023/06/08 07:12:53;;;;;;;21.02;19.52;;;;;;;58.76;10.25;100240.75;5048604;27;96747;-77
2023/06/08 07:15:19;;;;;;;21.88;20.45;;;;;;;59.48;10.00;100233.28;5036801;27;96857;-79
2023/06/08 07:17:46;;;;;;;23.00;21.40;;;;;;;60.03;9.64;100242.81;5034831;27;98716;-79
2023/06/08 07:20:12;;;;;;;20.67;19.37;;;;;;;59.44;9.71;100238.91;5034073;27;98294;-79
2023/06/08 07:22:38;;;;;;;21.42;19.85;;;;;;;58.83;10.04;100242.88;5037115;27;97475;-79
2023/06/08 07:25:04;;;;;;;21.13;19.73;;;;;;;58.42;10.15;100234.13;5040439;27;96863;-79
2023/06/08 07:27:30;;;;;;;22.55;21.15;;;;;;;58.70;9.66;100240.25;5042031;27;99238;-78
2023/06/08 07:29:56;;;;;;;23.08;21.52;;;;;;;59.55;9.94;100236.19;5041855;27;98460;-79
2023/06/08 07:32:22;;;;;;;22.73;21.33;;;;;;;60.87;9.20;100223.28;5053391;27;96719;-79
2023/06/08 07:34:48;;;;;;;23.50;21.70;;;;;;;61.15;8.58;100227.47;5042783;27;97025;-79
2023/06/08 07:37:13;;;;;;;22.35;20.75;;;;;;;61.69;8.86;100231.34;5049030;27;98714;-79
2023/06/08 07:39:39;;;;;;;23.50;21.92;;;;;;;61.72;8.73;100221.22;5042548;27;98699;-79
2023/06/08 07:42:05;;;;;;;22.42;20.83;;;;;;;60.38;9.82;100215.19;5042149;27;97112;-79
2023/06/08 07:44:33;;;;;;;22.35;20.85;;;;;;;58.08;10.34;100216.19;5045182;27;96766;-78
2023/06/08 07:47:00;;;;;;;21.80;20.30;;;;;;;58.51;10.20;100214.09;5046656;27;98949;-79
2023/06/08 07:49:28;;;;;;;22.42;20.92;;;;;;;59.42;9.78;100212.19;5025701;27;97449;-78
2023/06/08 07:51:54;;;;;;;;;;;;;;;61.28;9.42;100210.91;5046122;27;97006;-79
2023/06/08 07:54:19;;;;;;;21.30;19.80;;;;;;;58.57;9.80;100202.09;5047585;27;97525;-78
2023/06/08 07:56:48;;;;;;;19.95;18.63;;;;;;;51.80;13.65;100217.88;5050005;27;98693;-79
2023/06/08 07:59:14;;;;;;;21.25;19.75;;;;;;;49.56;14.92;100220.25;5038444;27;98598;-78
2023/06/08 08:01:42;;;;;;;22.35;20.95;;;;;;;48.37;15.36;100222.97;5040840;27;97328;-78
2023/06/08 08:04:08;;;;;;;20.70;19.38;;;;;;;47.44;16.13;100222.81;5046747;27;96829;-77
2023/06/08 08:06:33;;;;;;;21.05;19.63;;;;;;;49.32;14.88;100216.94;5038632;27;99022;-77
2023/06/08 08:08:59;;;;;;;20.80;19.42;;;;;;;52.19;13.52;100218.81;5046497;27;98375;-78
2023/06/08 08:11:25;;;;;;;20.88;19.35;;;;;;;51.79;13.63;100215.44;5041278;27;96989;-79
2023/06/08 08:13:50;;;;;;;19.55;18.27;;;;;;;51.68;13.51;100214.13;5019622;27;97380;-81
2023/06/08 08:16:16;;;;;;;21.25;19.95;;;;;;;52.31;12.89;100220.94;5032332;27;98845;-81
2023/06/08 08:18:41;;;;;;;21.83;20.50;;;;;;;52.67;12.66;100211.25;5038709;27;98271;-73
2023/06/08 08:21:07;;;;;;;22.00;20.40;;;;;;;52.00;12.63;100213.59;5040693;27;97466;-73
2023/06/08 08:23:32;;;;;;;20.80;19.33;;;;;;;50.65;14.28;100216.38;5044011;27;97125;-74
2023/06/08 08:25:58;;;;;;;20.58;19.17;;;;;;;49.59;15.04;100207.66;5035968;27;98765;-73
2023/06/08 08:28:23;;;;;;;21.33;19.85;;;;;;;46.49;16.79;100216.19;5014193;28;98267;-73
2023/06/08 08:30:50;;;;;;;19.35;17.88;;;;;;;45.02;17.71;100213.28;5035000;27;97242;-73
2023/06/08 08:33:16;;;;;;;20.02;18.73;;;;;;;40.92;20.69;100237.94;5036118;27;97101;-73
2023/06/08 08:35:41;;;;;;;21.05;19.52;;;;;;;38.41;22.89;100230.38;5040833;27;98751;-73
2023/06/08 08:38:07;;;;;;;21.17;19.63;;;;;;;38.55;23.52;100224.66;5037330;27;98602;-72
2023/06/08 08:40:32;;;;;;;20.40;19.10;;;;;;;37.96;23.94;100222.69;5037560;27;97134;-73
2023/06/08 08:43:18;;;;;;;21.30;20.00;;;;;;;37.39;24.56;100225.72;5033252;27;97008;-71
2023/06/08 08:45:45;;;;;;;21.92;20.48;;;;;;;37.44;24.74;100230.53;5036862;27;98663;-73
2023/06/08 08:48:13;;;;;;;21.20;19.70;;;;;;;35.83;25.49;100240.41;5047013;27;98830;-72
2023/06/08 08:50:39;;;;;;;20.27;18.90;;;;;;;35.30;26.57;100233.31;5025545;27;97060;-73
2023/06/08 08:53:06;;;;;;;21.30;19.98;;;;;;;34.31;27.20;100237.03;5037685;27;96944;-71
2023/06/08 08:55:33;;;;;;;22.30;20.67;;;;;;;34.69;27.11;100234.50;5033650;27;98974;-73
2023/06/08 08:58:03;;;;;;;21.10;19.77;;;;;;;34.12;27.70;100235.94;5039950;27;98777;-74
2023/06/08 09:00:31;;;;;;;21.70;20.20;;;;;;;34.15;28.00;100235.56;5041242;27;96974;-73
2023/06/08 09:02:56;;;;;;;20.85;19.48;;;;;;;34.16;27.79;100239.97;5045184;27;96979;-73
2023/06/08 09:05:22;;;;;;;21.63;19.67;;;;;;;32.76;28.76;100243.13;5043761;27;98732;-73
2023/06/08 09:07:47;;;;;;;20.85;19.52;;;;;;;32.45;29.85;100239.75;5033263;27;98569;-73
2023/06/08 09:10:18;;;;;;;21.25;19.83;;;;;;;32.50;29.90;100236.44;5032976;27;97093;-73
2023/06/08 09:12:54;;;;;;;21.00;19.48;;;;;;;32.80;29.69;100236.22;5035492;27;97506;-73
2023/06/08 09:15:30;;;;;;;20.85;19.52;;;;;;;33.00;30.42;100230.94;5032886;27;98763;-73
2023/06/08 09:17:57;;;;;;;20.55;19.23;;;;;;;32.38;30.11;100235.28;5048866;27;98397;-73
2023/06/08 09:20:31;;;;;;;21.67;20.17;;;;;;;32.21;30.95;100243.69;5036369;27;97140;-73
2023/06/08 09:22:57;;;;;;;20.55;19.25;;;;;;;32.62;30.41;100239.47;5032560;27;96836;-73
2023/06/08 09:25:36;;;;;;;21.38;19.98;;;;;;;32.21;30.70;100240.16;5040565;27;98712;-72
2023/06/08 09:28:22;;;;;;;20.33;19.03;;;;;;;31.79;30.83;100231.78;5033925;27;98501;-72
2023/06/08 09:30:50;;;;;;;21.33;19.73;;;;;;;32.04;30.49;100236.03;5025627;27;97377;-79
2023/06/08 11:42:58;;;;;;;19.70;17.85;;;;;;;28.88;30.64;100115.84;4611804;27;102782;-78
2023/06/08 11:45:25;;;;;;;18.67;17.48;;;;;;;28.89;30.81;100116.72;5041613;27;98663;-78
2023/06/08 11:47:54;;;;;;;18.73;17.52;;;;;;;28.91;31.22;100117.34;5039192;27;98427;-78
2023/06/08 11:50:20;;;;;;;19.35;18.00;;;;;;;29.16;31.37;100103.75;5041286;27;96764;-78
2023/06/08 11:52:49;;;;;;;18.48;17.27;;;;;;;29.22;30.65;100103.03;5048030;27;98484;-78
2023/06/08 11:55:15;;;;;;;18.60;17.20;;;;;;;29.14;30.75;100097.69;5038122;27;99066;-78
2023/06/08 11:57:55;;;;;;;18.75;17.38;;;;;;;29.23;30.40;100096.59;5026530;28;98313;-78
2023/06/08 12:00:32;;;;;;;19.65;17.92;;;;;;;28.98;30.48;100091.34;5036123;27;96825;-78
2023/06/08 12:03:00;;;;;;;19.02;17.40;;;;;;;28.86;30.71;100093.59;5034535;27;97486;-78
2023/06/08 12:05:33;;;;;;;17.58;15.98;;;;;;;28.85;31.50;100088.34;5047842;27;98673;-78
2023/06/08 12:07:58;;;;;;;17.88;16.67;;;;;;;28.84;31.46;100084.81;5047540;27;98236;-78
2023/06/08 12:10:31;;;;;;;19.00;17.38;;;;;;;28.71;30.79;100073.75;5054254;27;96832;-78
2023/06/08 12:12:57;;;;;;;18.02;16.45;;;;;;;29.16;30.95;100074.03;5054034;27;96838;-78
2023/06/08 12:15:23;;;;;;;18.80;17.15;;;;;;;28.95;30.36;100072.78;5051973;27;98896;-78
2023/06/08 12:17:48;;;;;;;17.83;16.63;;;;;;;28.96;29.76;100069.03;5052472;27;98449;-78
2023/06/08 12:20:15;;;;;;;18.65;17.35;;;;;;;28.69;30.24;100066.84;5052101;27;96835;-78
2023/06/08 12:22:41;;;;;;;18.05;16.70;;;;;;;28.49;30.41;100071.81;5042764;27;96816;-78
2023/06/08 12:25:07;;;;;;;18.70;17.30;;;;;;;28.50;30.83;100063.53;5048235;27;98054;-78
2023/06/08 12:27:37;;;;;;;18.90;17.50;;;;;;;28.60;30.84;100072.28;5042808;27;98191;-78
2023/06/08 12:30:08;;;;;;;17.80;16.30;;;;;;;28.53;30.10;100063.16;5048166;27;96749;-78
2023/06/08 12:32:34;;;;;;;18.10;16.98;;;;;;;28.73;30.64;100065.47;5044943;27;96770;-78
2023/06/08 12:35:00;;;;;;;18.85;17.55;;;;;;;28.76;30.08;100070.50;5040724;27;98653;-78
2023/06/08 12:37:26;;;;;;;18.52;16.95;;;;;;;29.17;30.29;100059.50;5044157;27;98491;-78
2023/06/08 12:39:52;;;;;;;18.25;17.00;;;;;;;29.31;31.41;100056.03;5039174;27;96837;-78
2023/06/08 12:42:20;;;;;;;19.20;17.42;;;;;;;29.21;29.88;100061.69;5044921;27;97133;-78
2023/06/08 12:44:47;;;;;;;19.48;17.77;;;;;;;29.08;29.55;100061.41;5038584;27;98766;-78
2023/06/08 12:47:12;;;;;;;19.70;18.05;;;;;;;28.78;29.87;100058.50;5039363;27;98394;-78
2023/06/08 12:49:38;;;;;;;18.05;16.85;;;;;;;28.61;29.97;100056.91;5048287;27;98759;-78
2023/06/08 12:52:04;;;;;;;19.35;17.60;;;;;;;28.55;30.51;100044.13;5038976;27;97141;-78
2023/06/08 12:54:29;;;;;;;18.23;17.05;;;;;;;28.51;30.76;100057.13;5037336;27;98810;-78
2023/06/08 12:56:55;;;;;;;19.80;18.20;;;;;;;28.25;31.09;100057.34;5043172;27;98605;-78
2023/06/08 12:59:20;;;;;;;18.23;16.80;;;;;;;28.14;31.73;100053.16;5052851;27;97586;-78
2023/06/08 13:01:46;;;;;;;18.45;17.13;;;;;;;28.33;31.75;100060.03;5035754;27;96986;-78
2023/06/08 13:04:11;;;;;;;20.10;18.58;;;;;;;28.29;31.71;100055.13;5035338;27;98634;-79
2023/06/08 13:06:39;;;;;;;18.98;17.30;;;;;;;28.26;30.87;100053.63;5044328;27;98473;-78
2023/06/08 13:09:04;;;;;;;18.45;17.25;;;;;;;28.48;31.15;100053.91;5029319;27;96714;-78
2023/06/08 13:11:30;;;;;;;19.23;17.60;;;;;;;28.44;30.91;100053.44;5048275;27;96836;-78
2023/06/08 13:13:56;;;;;;;17.95;16.85;;;;;;;28.54;31.02;100039.75;5038972;27;98676;-78
2023/06/08 13:16:21;;;;;;;17.85;16.40;;;;;;;28.58;31.15;100054.56;5040183;27;98507;-79
2023/06/08 13:18:47;;;;;;;18.73;17.50;;;;;;;28.60;30.86;100049.84;5048562;27;96781;-78
2023/06/08 13:21:13;;;;;;;19.73;17.83;;;;;;;28.48;31.20;100049.38;5050013;27;96971;-78